PWSweather.com
Personal Weather Stations
Station Observations
KE7PQK
Madrona , Everett, WA 98203

Madrona Everett, WA 98203

Lat: 47.960558, Lon: -122.245508

Elevation: 100

Station Type: Davis Vantage Pro2

High Low Average
Temperature 58.6°F14.8°C 46.0°F7.8°C 51.2°F10.7°C
Dew Point 49.6°F9.8°C 43.5°F6.4°C 46.5°F8.1°C
Winds 10.1 mph 16.3 kmh 0.9 mph 1.4 kmh 3.0 mph SE4.8 kmh SE
Wind Gusts 13.0 mph20.9 kmh -- 3.0 mph4.8 kmh
Humidity 93% 65% 84%
Pressure 29.74 in1007.1 mb 29.62 in1003.0 mb -
Precipitation 0.39 in9.9 mm - -
Hour Temp Dew Point Humidity Winds Wind Gusts Pressure Precip Precip Rate Daily Precip Total
12:02 AM 51.6°F10.9°C 48.2°F9.0°C 88% 0.9 mph SE1.4 kmh SE -- 29.76 in1007.8 mb 0.07 in1.8 mm 2.10 in/hr53.3 mm/hr 0.08 in2.0 mm
12:07 AM 51.4°F10.8°C 48.0°F8.9°C 88% Calm Calm 0.9 mph1.4 kmh 29.76 in1007.8 mb 0.05 in1.3 mm 0.00 in/hr0.0 mm/hr 0.08 in2.0 mm
12:12 AM 51.3°F10.7°C 47.8°F8.8°C 88% 0.9 mph S1.4 kmh S -- 29.76 in1007.8 mb 0.05 in1.3 mm 0.00 in/hr0.0 mm/hr 0.09 in2.3 mm
12:17 AM 51.1°F10.6°C 48.0°F8.9°C 89% 0.9 mph SE1.4 kmh SE 2.0 mph3.2 kmh 29.75 in1007.5 mb 0.07 in1.8 mm 0.24 in/hr6.1 mm/hr 0.09 in2.3 mm
12:22 AM 50.9°F10.5°C 47.8°F8.8°C 89% Calm Calm -- 29.75 in1007.5 mb 0.07 in1.8 mm 0.00 in/hr0.0 mm/hr 0.10 in2.5 mm
12:27 AM 50.7°F10.4°C 47.7°F8.7°C 89% 0.9 mph ESE1.4 kmh ESE 0.9 mph1.4 kmh 29.75 in1007.5 mb 0.04 in1.0 mm 0.00 in/hr0.0 mm/hr 0.10 in2.5 mm
12:32 AM 50.7°F10.4°C 47.7°F8.7°C 89% 0.9 mph SE1.4 kmh SE 0.9 mph1.4 kmh 29.75 in1007.5 mb 0.00 in0.0 mm 0.00 in/hr0.0 mm/hr 0.10 in2.5 mm
12:37 AM 50.5°F10.3°C 47.5°F8.6°C 89% 0.9 mph S1.4 kmh S 2.0 mph3.2 kmh 29.75 in1007.5 mb 0.00 in0.0 mm 0.00 in/hr0.0 mm/hr 0.10 in2.5 mm
12:42 AM 50.5°F10.3°C 47.5°F8.6°C 89% 0.9 mph SE1.4 kmh SE -- 29.75 in1007.5 mb 0.00 in0.0 mm 0.00 in/hr0.0 mm/hr 0.11 in2.8 mm
12:47 AM 50.5°F10.3°C 47.5°F8.6°C 89% 0.9 mph SE1.4 kmh SE -- 29.75 in1007.5 mb 0.07 in1.8 mm 0.84 in/hr21.3 mm/hr 0.11 in2.8 mm
12:52 AM 50.4°F10.2°C 47.3°F8.5°C 89% 0.9 mph E1.4 kmh E 4.0 mph6.4 kmh 29.74 in1007.1 mb 0.07 in1.8 mm 0.00 in/hr0.0 mm/hr 0.12 in3.0 mm
12:57 AM 50.0°F10.0°C 46.9°F8.3°C 89% 0.9 mph S1.4 kmh S 2.9 mph4.7 kmh 29.74 in1007.1 mb 0.07 in1.8 mm 0.00 in/hr0.0 mm/hr 0.12 in3.0 mm
01:02 AM 50.0°F10.0°C 46.9°F8.3°C 89% 0.9 mph SE1.4 kmh SE -- 29.74 in1007.1 mb 0.10 in2.5 mm 0.03 in/hr0.8 mm/hr 0.13 in3.3 mm
01:07 AM 49.6°F9.8°C 46.6°F8.1°C 89% 0.9 mph SE1.4 kmh SE -- 29.74 in1007.1 mb 0.10 in2.5 mm 0.00 in/hr0.0 mm/hr 0.14 in3.6 mm
01:12 AM 49.3°F9.6°C 45.9°F7.7°C 88% 2.0 mph SE3.2 kmh SE 4.0 mph6.4 kmh 29.73 in1006.8 mb 0.15 in3.8 mm 0.60 in/hr15.2 mm/hr 0.15 in3.8 mm
01:17 AM 48.9°F9.4°C 45.9°F7.7°C 89% 2.9 mph SE4.7 kmh SE 2.9 mph4.7 kmh 29.73 in1006.8 mb 0.14 in3.6 mm 0.00 in/hr0.0 mm/hr 0.16 in4.1 mm
01:22 AM 48.7°F9.3°C 45.7°F7.6°C 89% 2.0 mph SE3.2 kmh SE -- 29.73 in1006.8 mb 0.13 in3.3 mm 0.00 in/hr0.0 mm/hr 0.17 in4.3 mm
01:27 AM 48.7°F9.3°C 45.7°F7.6°C 89% 2.0 mph SE3.2 kmh SE 2.0 mph3.2 kmh 29.73 in1006.8 mb 0.17 in4.3 mm 0.48 in/hr12.2 mm/hr 0.19 in4.8 mm
01:32 AM 48.6°F9.2°C 45.5°F7.5°C 89% 2.0 mph SE3.2 kmh SE 2.9 mph4.7 kmh 29.73 in1006.8 mb 0.12 in3.0 mm 0.00 in/hr0.0 mm/hr 0.20 in5.1 mm
01:37 AM 48.6°F9.2°C 45.7°F7.6°C 90% 0.9 mph ESE1.4 kmh ESE 2.9 mph4.7 kmh 29.73 in1006.8 mb 0.09 in2.3 mm 0.00 in/hr0.0 mm/hr 0.20 in5.1 mm
01:42 AM 48.4°F9.1°C 45.3°F7.4°C 89% 2.0 mph SSE3.2 kmh SSE 2.0 mph3.2 kmh 29.73 in1006.8 mb 0.10 in2.5 mm 0.12 in/hr3.0 mm/hr 0.21 in5.3 mm
01:47 AM 47.8°F8.8°C 44.8°F7.1°C 89% 2.9 mph ESE4.7 kmh ESE 4.9 mph7.9 kmh 29.72 in1006.4 mb 0.09 in2.3 mm 0.00 in/hr0.0 mm/hr 0.22 in5.6 mm
01:52 AM 47.8°F8.8°C 45.0°F7.2°C 90% 2.9 mph E4.7 kmh E 0.9 mph1.4 kmh 29.72 in1006.4 mb 0.09 in2.3 mm 0.00 in/hr0.0 mm/hr 0.23 in5.8 mm
01:57 AM 47.8°F8.8°C 44.8°F7.1°C 89% 2.0 mph E3.2 kmh E 2.0 mph3.2 kmh 29.72 in1006.4 mb 0.09 in2.3 mm 0.00 in/hr0.0 mm/hr 0.24 in6.1 mm
02:02 AM 47.7°F8.7°C 44.6°F7.0°C 89% 2.9 mph SSW4.7 kmh SSW 2.9 mph4.7 kmh 29.71 in1006.1 mb 0.07 in1.8 mm 0.00 in/hr0.0 mm/hr 0.24 in6.1 mm
02:07 AM 47.5°F8.6°C 44.4°F6.9°C 89% 2.9 mph ESE4.7 kmh ESE -- 29.71 in1006.1 mb 0.05 in1.3 mm 0.00 in/hr0.0 mm/hr 0.24 in6.1 mm
02:12 AM 47.1°F8.4°C 44.1°F6.7°C 89% 2.9 mph E4.7 kmh E 4.0 mph6.4 kmh 29.71 in1006.1 mb 0.05 in1.3 mm 0.00 in/hr0.0 mm/hr 0.25 in6.4 mm
02:17 AM 46.9°F8.3°C 43.9°F6.6°C 89% 4.0 mph SE6.4 kmh SE 4.0 mph6.4 kmh 29.70 in1005.8 mb 0.05 in1.3 mm 0.00 in/hr0.0 mm/hr 0.25 in6.4 mm
02:22 AM 46.8°F8.2°C 43.7°F6.5°C 89% 2.9 mph SE4.7 kmh SE 0.9 mph1.4 kmh 29.70 in1005.8 mb 0.04 in1.0 mm 0.00 in/hr0.0 mm/hr 0.25 in6.4 mm
02:27 AM 46.8°F8.2°C 43.7°F6.5°C 89% 2.9 mph SE4.7 kmh SE 4.9 mph7.9 kmh 29.70 in1005.8 mb 0.04 in1.0 mm 0.00 in/hr0.0 mm/hr 0.26 in6.6 mm
02:32 AM 46.6°F8.1°C 43.5°F6.4°C 89% 2.9 mph SE4.7 kmh SE 2.0 mph3.2 kmh 29.70 in1005.8 mb 0.04 in1.0 mm 0.00 in/hr0.0 mm/hr 0.26 in6.6 mm
02:37 AM 46.6°F8.1°C 43.5°F6.4°C 89% 2.9 mph SE4.7 kmh SE -- 29.70 in1005.8 mb 0.04 in1.0 mm 0.00 in/hr0.0 mm/hr 0.26 in6.6 mm
02:42 AM 46.4°F8.0°C 43.7°F6.5°C 90% 2.9 mph ESE4.7 kmh ESE 6.9 mph11.1 kmh 29.69 in1005.4 mb 0.04 in1.0 mm 0.00 in/hr0.0 mm/hr 0.27 in6.9 mm
02:47 AM 46.6°F8.1°C 43.9°F6.6°C 90% 2.9 mph E4.7 kmh E -- 29.69 in1005.4 mb 0.04 in1.0 mm 0.00 in/hr0.0 mm/hr 0.27 in6.9 mm
02:52 AM 46.6°F8.1°C 43.9°F6.6°C 90% 2.0 mph E3.2 kmh E 0.9 mph1.4 kmh 29.69 in1005.4 mb 0.04 in1.0 mm 0.00 in/hr0.0 mm/hr 0.27 in6.9 mm
02:57 AM 46.6°F8.1°C 43.9°F6.6°C 90% 2.9 mph E4.7 kmh E 4.0 mph6.4 kmh 29.68 in1005.1 mb 0.00 in0.0 mm 0.00 in/hr0.0 mm/hr 0.27 in6.9 mm
03:02 AM 46.6°F8.1°C 44.1°F6.7°C 91% 2.9 mph SE4.7 kmh SE 8.9 mph14.3 kmh 29.68 in1005.1 mb 0.00 in0.0 mm 0.00 in/hr0.0 mm/hr 0.27 in6.9 mm
03:07 AM 46.4°F8.0°C 43.9°F6.6°C 91% 4.0 mph ESE6.4 kmh ESE 8.1 mph13.0 kmh 29.68 in1005.1 mb 0.00 in0.0 mm 0.00 in/hr0.0 mm/hr 0.28 in7.1 mm
03:12 AM 46.4°F8.0°C 43.7°F6.5°C 90% 4.0 mph SE6.4 kmh SE 4.0 mph6.4 kmh 29.68 in1005.1 mb 0.00 in0.0 mm 0.00 in/hr0.0 mm/hr 0.28 in7.1 mm
03:17 AM 46.4°F8.0°C 43.7°F6.5°C 90% 4.0 mph ESE6.4 kmh ESE 0.9 mph1.4 kmh 29.68 in1005.1 mb 0.00 in0.0 mm 0.00 in/hr0.0 mm/hr 0.28 in7.1 mm
03:22 AM 46.2°F7.9°C 43.5°F6.4°C 90% 4.9 mph ESE7.9 kmh ESE 4.9 mph7.9 kmh 29.68 in1005.1 mb 0.00 in0.0 mm 0.00 in/hr0.0 mm/hr 0.28 in7.1 mm
03:27 AM 46.0°F7.8°C 43.5°F6.4°C 91% 4.9 mph SE7.9 kmh SE 2.0 mph3.2 kmh 29.67 in1004.7 mb 0.00 in0.0 mm 0.00 in/hr0.0 mm/hr 0.29 in7.4 mm
03:32 AM 46.0°F7.8°C 43.5°F6.4°C 91% 2.9 mph S4.7 kmh S 2.9 mph4.7 kmh 29.67 in1004.7 mb 0.05 in1.3 mm 0.60 in/hr15.2 mm/hr 0.29 in7.4 mm
03:37 AM 46.0°F7.8°C 43.5°F6.4°C 91% 4.0 mph E6.4 kmh E 2.0 mph3.2 kmh 29.67 in1004.7 mb 0.05 in1.3 mm 0.00 in/hr0.0 mm/hr 0.30 in7.6 mm
03:42 AM 46.2°F7.9°C 43.7°F6.5°C 91% 4.0 mph SE6.4 kmh SE 4.0 mph6.4 kmh 29.67 in1004.7 mb 0.05 in1.3 mm 0.00 in/hr0.0 mm/hr 0.30 in7.6 mm
03:47 AM 46.2°F7.9°C 43.7°F6.5°C 91% 2.9 mph SE4.7 kmh SE -- 29.67 in1004.7 mb 0.04 in1.0 mm 0.00 in/hr0.0 mm/hr 0.30 in7.6 mm
03:52 AM 46.2°F7.9°C 44.1°F6.7°C 92% 0.9 mph SE1.4 kmh SE 2.9 mph4.7 kmh 29.67 in1004.7 mb 0.00 in0.0 mm 0.00 in/hr0.0 mm/hr 0.30 in7.6 mm
03:57 AM 46.4°F8.0°C 44.2°F6.8°C 92% 0.9 mph E1.4 kmh E 0.9 mph1.4 kmh 29.67 in1004.7 mb 0.00 in0.0 mm 0.00 in/hr0.0 mm/hr 0.31 in7.9 mm
04:02 AM 46.6°F8.1°C 44.4°F6.9°C 92% 0.9 mph SSE1.4 kmh SSE 2.9 mph4.7 kmh 29.67 in1004.7 mb 0.00 in0.0 mm 0.00 in/hr0.0 mm/hr 0.31 in7.9 mm
04:07 AM 46.6°F8.1°C 44.4°F6.9°C 92% 2.0 mph SE3.2 kmh SE 4.9 mph7.9 kmh 29.67 in1004.7 mb 0.04 in1.0 mm 0.48 in/hr12.2 mm/hr 0.31 in7.9 mm
04:12 AM 46.8°F8.2°C 44.6°F7.0°C 92% 2.9 mph SSE4.7 kmh SSE 2.0 mph3.2 kmh 29.67 in1004.7 mb 0.04 in1.0 mm 0.00 in/hr0.0 mm/hr 0.32 in8.1 mm
04:17 AM 46.8°F8.2°C 44.6°F7.0°C 92% 2.0 mph E3.2 kmh E 2.9 mph4.7 kmh 29.67 in1004.7 mb 0.06 in1.5 mm 0.24 in/hr6.1 mm/hr 0.32 in8.1 mm
04:22 AM 46.8°F8.2°C 44.6°F7.0°C 92% 2.0 mph SE3.2 kmh SE -- 29.66 in1004.4 mb 0.06 in1.5 mm 0.00 in/hr0.0 mm/hr 0.33 in8.4 mm
04:27 AM 46.8°F8.2°C 44.6°F7.0°C 92% 2.9 mph E4.7 kmh E 2.0 mph3.2 kmh 29.66 in1004.4 mb 0.07 in1.8 mm 0.12 in/hr3.0 mm/hr 0.33 in8.4 mm
04:32 AM 46.9°F8.3°C 44.8°F7.1°C 92% 2.0 mph E3.2 kmh E 2.9 mph4.7 kmh 29.66 in1004.4 mb 0.07 in1.8 mm 0.00 in/hr0.0 mm/hr 0.34 in8.6 mm
04:37 AM 46.9°F8.3°C 44.8°F7.1°C 92% 0.9 mph ESE1.4 kmh ESE -- 29.66 in1004.4 mb 0.05 in1.3 mm 0.00 in/hr0.0 mm/hr 0.34 in8.6 mm
04:42 AM 46.9°F8.3°C 44.8°F7.1°C 92% 2.0 mph NE3.2 kmh NE 4.0 mph6.4 kmh 29.65 in1004.1 mb 0.04 in1.0 mm 0.00 in/hr0.0 mm/hr 0.34 in8.6 mm
04:47 AM 46.9°F8.3°C 44.8°F7.1°C 92% 2.0 mph SE3.2 kmh SE 4.0 mph6.4 kmh 29.65 in1004.1 mb 0.04 in1.0 mm 0.00 in/hr0.0 mm/hr 0.35 in8.9 mm
04:52 AM 46.9°F8.3°C 44.8°F7.1°C 92% 2.9 mph SE4.7 kmh SE 4.0 mph6.4 kmh 29.65 in1004.1 mb 0.04 in1.0 mm 0.00 in/hr0.0 mm/hr 0.35 in8.9 mm
04:57 AM 46.9°F8.3°C 44.8°F7.1°C 92% 4.0 mph SE6.4 kmh SE 2.9 mph4.7 kmh 29.65 in1004.1 mb 0.04 in1.0 mm 0.00 in/hr0.0 mm/hr 0.36 in9.1 mm
05:02 AM 47.1°F8.4°C 45.0°F7.2°C 92% 4.0 mph SSE6.4 kmh SSE 0.9 mph1.4 kmh 29.65 in1004.1 mb 0.04 in1.0 mm 0.00 in/hr0.0 mm/hr 0.36 in9.1 mm
05:07 AM 47.1°F8.4°C 45.1°F7.3°C 93% 4.0 mph S6.4 kmh S 4.0 mph6.4 kmh 29.65 in1004.1 mb 0.04 in1.0 mm 0.00 in/hr0.0 mm/hr 0.36 in9.1 mm
05:12 AM 47.1°F8.4°C 45.0°F7.2°C 92% 4.0 mph SE6.4 kmh SE 2.9 mph4.7 kmh 29.65 in1004.1 mb 0.00 in0.0 mm 0.00 in/hr0.0 mm/hr 0.36 in9.1 mm
05:17 AM 47.1°F8.4°C 45.1°F7.3°C 93% 2.9 mph ESE4.7 kmh ESE 2.9 mph4.7 kmh 29.65 in1004.1 mb 0.00 in0.0 mm 0.00 in/hr0.0 mm/hr 0.36 in9.1 mm
05:22 AM 47.1°F8.4°C 45.0°F7.2°C 92% 4.0 mph ESE6.4 kmh ESE 2.9 mph4.7 kmh 29.65 in1004.1 mb 0.00 in0.0 mm 0.00 in/hr0.0 mm/hr 0.36 in9.1 mm
05:27 AM 47.1°F8.4°C 45.0°F7.2°C 92% 4.9 mph E7.9 kmh E 4.9 mph7.9 kmh 29.65 in1004.1 mb 0.00 in0.0 mm 0.00 in/hr0.0 mm/hr 0.36 in9.1 mm
05:32 AM 47.1°F8.4°C 45.1°F7.3°C 93% 4.9 mph E7.9 kmh E 2.0 mph3.2 kmh 29.64 in1003.7 mb 0.00 in0.0 mm 0.00 in/hr0.0 mm/hr 0.37 in9.4 mm
05:37 AM 47.3°F8.5°C 45.1°F7.3°C 92% 4.0 mph S6.4 kmh S 0.9 mph1.4 kmh 29.64 in1003.7 mb 0.09 in2.3 mm 1.08 in/hr27.4 mm/hr 0.38 in9.7 mm
05:42 AM 47.3°F8.5°C 45.3°F7.4°C 93% 4.0 mph SE6.4 kmh SE 2.0 mph3.2 kmh 29.64 in1003.7 mb 0.06 in1.5 mm 0.00 in/hr0.0 mm/hr 0.38 in9.7 mm
05:47 AM 47.5°F8.6°C 45.5°F7.5°C 93% 2.9 mph E4.7 kmh E 0.9 mph1.4 kmh 29.64 in1003.7 mb 0.04 in1.0 mm 0.00 in/hr0.0 mm/hr 0.38 in9.7 mm
05:52 AM 47.5°F8.6°C 45.5°F7.5°C 93% 4.0 mph SE6.4 kmh SE 4.0 mph6.4 kmh 29.64 in1003.7 mb 0.00 in0.0 mm 0.00 in/hr0.0 mm/hr 0.38 in9.7 mm
05:57 AM 47.7°F8.7°C 45.7°F7.6°C 93% 4.0 mph SE6.4 kmh SE 4.0 mph6.4 kmh 29.64 in1003.7 mb 0.00 in0.0 mm 0.00 in/hr0.0 mm/hr 0.38 in9.7 mm
06:02 AM 47.7°F8.7°C 45.5°F7.5°C 92% 2.9 mph SE4.7 kmh SE 2.9 mph4.7 kmh 29.63 in1003.4 mb 0.00 in0.0 mm 0.00 in/hr0.0 mm/hr 0.38 in9.7 mm
06:07 AM 47.7°F8.7°C 45.5°F7.5°C 92% 2.9 mph SE4.7 kmh SE 4.0 mph6.4 kmh 29.64 in1003.7 mb 0.00 in0.0 mm 0.00 in/hr0.0 mm/hr 0.38 in9.7 mm
06:12 AM 47.7°F8.7°C 45.5°F7.5°C 92% 2.9 mph SE4.7 kmh SE 0.9 mph1.4 kmh 29.63 in1003.4 mb 0.00 in0.0 mm 0.00 in/hr0.0 mm/hr 0.38 in9.7 mm
06:17 AM 47.8°F8.8°C 45.9°F7.7°C 93% 2.0 mph SE3.2 kmh SE -- 29.63 in1003.4 mb 0.00 in0.0 mm 0.00 in/hr0.0 mm/hr 0.38 in9.7 mm
06:22 AM 47.8°F8.8°C 45.9°F7.7°C 93% 2.0 mph E3.2 kmh E 0.9 mph1.4 kmh 29.63 in1003.4 mb 0.00 in0.0 mm 0.00 in/hr0.0 mm/hr 0.38 in9.7 mm
06:27 AM 48.0°F8.9°C 46.0°F7.8°C 93% 2.0 mph E3.2 kmh E 0.9 mph1.4 kmh 29.63 in1003.4 mb 0.00 in0.0 mm 0.00 in/hr0.0 mm/hr 0.38 in9.7 mm
06:32 AM 48.0°F8.9°C 46.0°F7.8°C 93% 2.0 mph SE3.2 kmh SE 8.9 mph14.3 kmh 29.63 in1003.4 mb 0.00 in0.0 mm 0.00 in/hr0.0 mm/hr 0.38 in9.7 mm
06:37 AM 48.2°F9.0°C 46.2°F7.9°C 93% 2.0 mph ESE3.2 kmh ESE 6.9 mph11.1 kmh 29.63 in1003.4 mb 0.00 in0.0 mm 0.00 in/hr0.0 mm/hr 0.38 in9.7 mm
06:42 AM 48.2°F9.0°C 46.0°F7.8°C 92% 2.9 mph SE4.7 kmh SE 0.9 mph1.4 kmh 29.63 in1003.4 mb 0.00 in0.0 mm 0.00 in/hr0.0 mm/hr 0.38 in9.7 mm
06:47 AM 48.4°F9.1°C 46.2°F7.9°C 92% 2.9 mph ESE4.7 kmh ESE 2.0 mph3.2 kmh 29.62 in1003.0 mb 0.00 in0.0 mm 0.00 in/hr0.0 mm/hr 0.38 in9.7 mm
06:52 AM 48.4°F9.1°C 46.2°F7.9°C 92% 2.0 mph SE3.2 kmh SE -- 29.62 in1003.0 mb 0.00 in0.0 mm 0.00 in/hr0.0 mm/hr 0.38 in9.7 mm
06:57 AM 48.6°F9.2°C 46.6°F8.1°C 93% 2.0 mph SE3.2 kmh SE 2.0 mph3.2 kmh 29.62 in1003.0 mb 0.00 in0.0 mm 0.00 in/hr0.0 mm/hr 0.38 in9.7 mm
07:02 AM 48.6°F9.2°C 46.4°F8.0°C 92% 2.0 mph ESE3.2 kmh ESE -- 29.62 in1003.0 mb 0.00 in0.0 mm 0.00 in/hr0.0 mm/hr 0.38 in9.7 mm
07:07 AM 48.6°F9.2°C 46.4°F8.0°C 92% 2.0 mph SE3.2 kmh SE 2.9 mph4.7 kmh 29.62 in1003.0 mb 0.00 in0.0 mm 0.00 in/hr0.0 mm/hr 0.38 in9.7 mm
07:12 AM 48.7°F9.3°C 46.6°F8.1°C 92% 0.9 mph ENE1.4 kmh ENE 0.9 mph1.4 kmh 29.62 in1003.0 mb 0.00 in0.0 mm 0.00 in/hr0.0 mm/hr 0.38 in9.7 mm
07:17 AM 48.7°F9.3°C 46.6°F8.1°C 92% 2.0 mph ESE3.2 kmh ESE 2.0 mph3.2 kmh 29.62 in1003.0 mb 0.00 in0.0 mm 0.00 in/hr0.0 mm/hr 0.38 in9.7 mm
07:22 AM 48.7°F9.3°C 46.6°F8.1°C 92% 2.9 mph SE4.7 kmh SE 6.9 mph11.1 kmh 29.62 in1003.0 mb 0.00 in0.0 mm 0.00 in/hr0.0 mm/hr 0.38 in9.7 mm
07:27 AM 48.7°F9.3°C 46.6°F8.1°C 92% 2.9 mph ESE4.7 kmh ESE 2.9 mph4.7 kmh 29.62 in1003.0 mb 0.00 in0.0 mm 0.00 in/hr0.0 mm/hr 0.38 in9.7 mm
07:32 AM 48.7°F9.3°C 46.6°F8.1°C 92% 2.9 mph SSE4.7 kmh SSE 2.9 mph4.7 kmh 29.62 in1003.0 mb 0.00 in0.0 mm 0.00 in/hr0.0 mm/hr 0.38 in9.7 mm
07:37 AM 48.7°F9.3°C 46.6°F8.1°C 92% 2.9 mph SE4.7 kmh SE -- 29.62 in1003.0 mb 0.00 in0.0 mm 0.00 in/hr0.0 mm/hr 0.38 in9.7 mm
07:42 AM 48.7°F9.3°C 46.6°F8.1°C 92% 2.0 mph E3.2 kmh E -- 29.62 in1003.0 mb 0.00 in0.0 mm 0.00 in/hr0.0 mm/hr 0.38 in9.7 mm
07:47 AM 48.9°F9.4°C 46.8°F8.2°C 92% 0.9 mph E1.4 kmh E 4.9 mph7.9 kmh 29.62 in1003.0 mb 0.00 in0.0 mm 0.00 in/hr0.0 mm/hr 0.38 in9.7 mm
07:52 AM 48.9°F9.4°C 46.8°F8.2°C 92% 2.0 mph SSE3.2 kmh SSE 10.1 mph16.3 kmh 29.62 in1003.0 mb 0.00 in0.0 mm 0.00 in/hr0.0 mm/hr 0.38 in9.7 mm
07:57 AM 49.1°F9.5°C 46.9°F8.3°C 92% 2.9 mph ESE4.7 kmh ESE 4.0 mph6.4 kmh 29.62 in1003.0 mb 0.00 in0.0 mm 0.00 in/hr0.0 mm/hr 0.38 in9.7 mm
08:02 AM 49.3°F9.6°C 47.1°F8.4°C 92% 2.0 mph SE3.2 kmh SE 2.0 mph3.2 kmh 29.62 in1003.0 mb 0.00 in0.0 mm 0.00 in/hr0.0 mm/hr 0.38 in9.7 mm
08:07 AM 49.5°F9.7°C 47.3°F8.5°C 92% 2.0 mph SE3.2 kmh SE 2.0 mph3.2 kmh 29.62 in1003.0 mb 0.00 in0.0 mm 0.00 in/hr0.0 mm/hr 0.38 in9.7 mm
08:12 AM 49.5°F9.7°C 47.3°F8.5°C 92% 2.0 mph E3.2 kmh E -- 29.62 in1003.0 mb 0.00 in0.0 mm 0.00 in/hr0.0 mm/hr 0.38 in9.7 mm
08:17 AM 49.5°F9.7°C 47.3°F8.5°C 92% 2.9 mph SE4.7 kmh SE 4.9 mph7.9 kmh 29.62 in1003.0 mb 0.00 in0.0 mm 0.00 in/hr0.0 mm/hr 0.38 in9.7 mm
08:22 AM 49.6°F9.8°C 47.5°F8.6°C 92% 2.9 mph ESE4.7 kmh ESE 0.9 mph1.4 kmh 29.62 in1003.0 mb 0.00 in0.0 mm 0.00 in/hr0.0 mm/hr 0.38 in9.7 mm
08:27 AM 49.6°F9.8°C 47.5°F8.6°C 92% 2.0 mph SE3.2 kmh SE 2.0 mph3.2 kmh 29.62 in1003.0 mb 0.00 in0.0 mm 0.00 in/hr0.0 mm/hr 0.38 in9.7 mm
08:32 AM 49.8°F9.9°C 47.7°F8.7°C 92% 2.0 mph SW3.2 kmh SW 6.0 mph9.7 kmh 29.62 in1003.0 mb 0.00 in0.0 mm 0.00 in/hr0.0 mm/hr 0.38 in9.7 mm
08:37 AM 49.8°F9.9°C 47.3°F8.5°C 91% 2.9 mph W4.7 kmh W 2.0 mph3.2 kmh 29.62 in1003.0 mb 0.00 in0.0 mm 0.00 in/hr0.0 mm/hr 0.38 in9.7 mm
08:42 AM 49.8°F9.9°C 47.3°F8.5°C 91% 2.0 mph E3.2 kmh E 0.9 mph1.4 kmh 29.62 in1003.0 mb 0.00 in0.0 mm 0.00 in/hr0.0 mm/hr 0.38 in9.7 mm
08:47 AM 50.2°F10.1°C 48.0°F8.9°C 92% 0.9 mph NE1.4 kmh NE -- 29.62 in1003.0 mb 0.00 in0.0 mm 0.00 in/hr0.0 mm/hr 0.38 in9.7 mm
08:52 AM 50.2°F10.1°C 47.7°F8.7°C 91% 0.9 mph SSE1.4 kmh SSE 12.1 mph19.5 kmh 29.62 in1003.0 mb 0.00 in0.0 mm 0.00 in/hr0.0 mm/hr 0.38 in9.7 mm
08:57 AM 50.2°F10.1°C 47.7°F8.7°C 91% 2.9 mph SE4.7 kmh SE 10.1 mph16.3 kmh 29.62 in1003.0 mb 0.00 in0.0 mm 0.00 in/hr0.0 mm/hr 0.38 in9.7 mm
09:02 AM 50.4°F10.2°C 47.5°F8.6°C 90% 2.9 mph SE4.7 kmh SE 2.9 mph4.7 kmh 29.62 in1003.0 mb 0.00 in0.0 mm 0.00 in/hr0.0 mm/hr 0.38 in9.7 mm
09:07 AM 50.5°F10.3°C 47.7°F8.7°C 90% 2.0 mph E3.2 kmh E 0.9 mph1.4 kmh 29.63 in1003.4 mb 0.00 in0.0 mm 0.00 in/hr0.0 mm/hr 0.38 in9.7 mm
09:12 AM 50.5°F10.3°C 47.7°F8.7°C 90% 0.9 mph E1.4 kmh E -- 29.63 in1003.4 mb 0.00 in0.0 mm 0.00 in/hr0.0 mm/hr 0.38 in9.7 mm
09:17 AM 50.7°F10.4°C 47.8°F8.8°C 90% 0.9 mph WSW1.4 kmh WSW -- 29.63 in1003.4 mb 0.00 in0.0 mm 0.00 in/hr0.0 mm/hr 0.38 in9.7 mm
09:22 AM 50.7°F10.4°C 47.8°F8.8°C 90% 2.0 mph E3.2 kmh E 2.9 mph4.7 kmh 29.63 in1003.4 mb 0.00 in0.0 mm 0.00 in/hr0.0 mm/hr 0.38 in9.7 mm
09:27 AM 50.7°F10.4°C 47.8°F8.8°C 90% 2.0 mph SE3.2 kmh SE 2.9 mph4.7 kmh 29.63 in1003.4 mb 0.00 in0.0 mm 0.00 in/hr0.0 mm/hr 0.38 in9.7 mm
09:32 AM 50.9°F10.5°C 47.8°F8.8°C 89% 2.9 mph SW4.7 kmh SW 0.9 mph1.4 kmh 29.63 in1003.4 mb 0.00 in0.0 mm 0.00 in/hr0.0 mm/hr 0.38 in9.7 mm
09:37 AM 51.1°F10.6°C 48.0°F8.9°C 89% 2.9 mph SSE4.7 kmh SSE 0.9 mph1.4 kmh 29.63 in1003.4 mb 0.00 in0.0 mm 0.00 in/hr0.0 mm/hr 0.38 in9.7 mm
09:42 AM 51.3°F10.7°C 48.2°F9.0°C 89% 2.0 mph S3.2 kmh S -- 29.63 in1003.4 mb 0.00 in0.0 mm 0.00 in/hr0.0 mm/hr 0.38 in9.7 mm
09:47 AM 51.1°F10.6°C 47.7°F8.7°C 88% 2.9 mph S4.7 kmh S 4.0 mph6.4 kmh 29.63 in1003.4 mb 0.00 in0.0 mm 0.00 in/hr0.0 mm/hr 0.38 in9.7 mm
09:52 AM 51.1°F10.6°C 47.7°F8.7°C 88% 2.9 mph SSE4.7 kmh SSE 2.9 mph4.7 kmh 29.63 in1003.4 mb 0.00 in0.0 mm 0.00 in/hr0.0 mm/hr 0.38 in9.7 mm
09:57 AM 51.1°F10.6°C 47.7°F8.7°C 88% 2.9 mph ESE4.7 kmh ESE 8.1 mph13.0 kmh 29.63 in1003.4 mb 0.00 in0.0 mm 0.00 in/hr0.0 mm/hr 0.38 in9.7 mm
10:02 AM 51.1°F10.6°C 47.3°F8.5°C 87% 4.0 mph S6.4 kmh S 0.9 mph1.4 kmh 29.63 in1003.4 mb 0.00 in0.0 mm 0.00 in/hr0.0 mm/hr 0.38 in9.7 mm
10:07 AM 51.3°F10.7°C 47.8°F8.8°C 88% 4.0 mph SSE6.4 kmh SSE 13.0 mph20.9 kmh 29.63 in1003.4 mb 0.00 in0.0 mm 0.00 in/hr0.0 mm/hr 0.38 in9.7 mm
10:12 AM 51.4°F10.8°C 47.7°F8.7°C 87% 4.0 mph S6.4 kmh S 2.0 mph3.2 kmh 29.64 in1003.7 mb 0.00 in0.0 mm 0.00 in/hr0.0 mm/hr 0.38 in9.7 mm
10:17 AM 51.6°F10.9°C 47.8°F8.8°C 87% 2.9 mph SSE4.7 kmh SSE -- 29.64 in1003.7 mb 0.00 in0.0 mm 0.00 in/hr0.0 mm/hr 0.38 in9.7 mm
10:22 AM 52.0°F11.1°C 48.2°F9.0°C 87% 2.9 mph S4.7 kmh S 6.0 mph9.7 kmh 29.65 in1004.1 mb 0.00 in0.0 mm 0.00 in/hr0.0 mm/hr 0.38 in9.7 mm
10:27 AM 52.3°F11.3°C 48.2°F9.0°C 86% 2.9 mph SSE4.7 kmh SSE 4.0 mph6.4 kmh 29.65 in1004.1 mb 0.00 in0.0 mm 0.00 in/hr0.0 mm/hr 0.38 in9.7 mm
10:32 AM 52.7°F11.5°C 48.6°F9.2°C 86% 2.9 mph SSE4.7 kmh SSE 4.0 mph6.4 kmh 29.64 in1003.7 mb 0.00 in0.0 mm 0.00 in/hr0.0 mm/hr 0.38 in9.7 mm
10:37 AM 53.1°F11.7°C 48.7°F9.3°C 85% 2.9 mph SSE4.7 kmh SSE 2.0 mph3.2 kmh 29.65 in1004.1 mb 0.00 in0.0 mm 0.00 in/hr0.0 mm/hr 0.38 in9.7 mm
10:42 AM 53.1°F11.7°C 48.4°F9.1°C 84% 2.9 mph SE4.7 kmh SE 0.9 mph1.4 kmh 29.65 in1004.1 mb 0.00 in0.0 mm 0.00 in/hr0.0 mm/hr 0.38 in9.7 mm
10:47 AM 53.2°F11.8°C 48.2°F9.0°C 83% 4.0 mph SE6.4 kmh SE 6.0 mph9.7 kmh 29.65 in1004.1 mb 0.00 in0.0 mm 0.00 in/hr0.0 mm/hr 0.38 in9.7 mm
10:52 AM 53.4°F11.9°C 48.4°F9.1°C 83% 4.0 mph SW6.4 kmh SW 8.1 mph13.0 kmh 29.65 in1004.1 mb 0.00 in0.0 mm 0.00 in/hr0.0 mm/hr 0.38 in9.7 mm
10:57 AM 54.0°F12.2°C 48.9°F9.4°C 83% 2.9 mph S4.7 kmh S -- 29.65 in1004.1 mb 0.00 in0.0 mm 0.00 in/hr0.0 mm/hr 0.38 in9.7 mm
11:02 AM 54.3°F12.4°C 49.3°F9.6°C 83% 2.9 mph ESE4.7 kmh ESE 4.0 mph6.4 kmh 29.65 in1004.1 mb 0.00 in0.0 mm 0.00 in/hr0.0 mm/hr 0.38 in9.7 mm
11:07 AM 54.7°F12.6°C 49.3°F9.6°C 82% 2.9 mph SSE4.7 kmh SSE 4.0 mph6.4 kmh 29.65 in1004.1 mb 0.00 in0.0 mm 0.00 in/hr0.0 mm/hr 0.38 in9.7 mm
11:12 AM 55.0°F12.8°C 49.6°F9.8°C 82% 2.9 mph SW4.7 kmh SW 2.9 mph4.7 kmh 29.65 in1004.1 mb 0.00 in0.0 mm 0.00 in/hr0.0 mm/hr 0.38 in9.7 mm
11:17 AM 55.0°F12.8°C 49.3°F9.6°C 81% 2.9 mph SSE4.7 kmh SSE 0.9 mph1.4 kmh 29.65 in1004.1 mb 0.00 in0.0 mm 0.00 in/hr0.0 mm/hr 0.38 in9.7 mm
11:22 AM 55.0°F12.8°C 48.9°F9.4°C 80% 2.0 mph SSW3.2 kmh SSW -- 29.65 in1004.1 mb 0.00 in0.0 mm 0.00 in/hr0.0 mm/hr 0.38 in9.7 mm
11:27 AM 55.2°F12.9°C 48.7°F9.3°C 79% 2.0 mph WSW3.2 kmh WSW 2.0 mph3.2 kmh 29.66 in1004.4 mb 0.00 in0.0 mm 0.00 in/hr0.0 mm/hr 0.38 in9.7 mm
11:32 AM 55.4°F13.0°C 48.9°F9.4°C 79% 2.9 mph S4.7 kmh S 0.9 mph1.4 kmh 29.66 in1004.4 mb 0.00 in0.0 mm 0.00 in/hr0.0 mm/hr 0.38 in9.7 mm
11:37 AM 55.8°F13.2°C 48.9°F9.4°C 78% 2.9 mph SSE4.7 kmh SSE 0.9 mph1.4 kmh 29.66 in1004.4 mb 0.00 in0.0 mm 0.00 in/hr0.0 mm/hr 0.38 in9.7 mm
11:42 AM 55.8°F13.2°C 48.9°F9.4°C 78% 4.0 mph SW6.4 kmh SW 2.0 mph3.2 kmh 29.66 in1004.4 mb 0.00 in0.0 mm 0.00 in/hr0.0 mm/hr 0.38 in9.7 mm
11:47 AM 55.9°F13.3°C 48.9°F9.4°C 77% 4.0 mph SW6.4 kmh SW 0.9 mph1.4 kmh 29.66 in1004.4 mb 0.00 in0.0 mm 0.00 in/hr0.0 mm/hr 0.38 in9.7 mm
11:52 AM 55.9°F13.3°C 48.9°F9.4°C 77% 2.9 mph SE4.7 kmh SE 4.9 mph7.9 kmh 29.66 in1004.4 mb 0.00 in0.0 mm 0.00 in/hr0.0 mm/hr 0.38 in9.7 mm
11:57 AM 56.1°F13.4°C 48.7°F9.3°C 76% 4.0 mph S6.4 kmh S 0.9 mph1.4 kmh 29.66 in1004.4 mb 0.00 in0.0 mm 0.00 in/hr0.0 mm/hr 0.38 in9.7 mm
12:02 PM 56.3°F13.5°C 48.6°F9.2°C 75% 4.9 mph WSW7.9 kmh WSW 6.0 mph9.7 kmh 29.66 in1004.4 mb 0.00 in0.0 mm 0.00 in/hr0.0 mm/hr 0.38 in9.7 mm
12:07 PM 56.5°F13.6°C 48.7°F9.3°C 75% 4.0 mph SSE6.4 kmh SSE 2.9 mph4.7 kmh 29.66 in1004.4 mb 0.00 in0.0 mm 0.00 in/hr0.0 mm/hr 0.38 in9.7 mm
12:12 PM 56.5°F13.6°C 48.7°F9.3°C 75% 4.0 mph ESE6.4 kmh ESE 0.9 mph1.4 kmh 29.66 in1004.4 mb 0.00 in0.0 mm 0.00 in/hr0.0 mm/hr 0.38 in9.7 mm
12:17 PM 56.7°F13.7°C 48.7°F9.3°C 75% 2.9 mph SSE4.7 kmh SSE 0.9 mph1.4 kmh 29.66 in1004.4 mb 0.00 in0.0 mm 0.00 in/hr0.0 mm/hr 0.38 in9.7 mm
12:22 PM 56.8°F13.8°C 48.9°F9.4°C 75% 2.0 mph S3.2 kmh S 4.0 mph6.4 kmh 29.66 in1004.4 mb 0.00 in0.0 mm 0.00 in/hr0.0 mm/hr 0.38 in9.7 mm
12:27 PM 57.0°F13.9°C 48.4°F9.1°C 73% 4.0 mph ESE6.4 kmh ESE 2.9 mph4.7 kmh 29.65 in1004.1 mb 0.00 in0.0 mm 0.00 in/hr0.0 mm/hr 0.38 in9.7 mm
12:32 PM 57.2°F14.0°C 48.6°F9.2°C 73% 4.9 mph SE7.9 kmh SE 11.0 mph17.7 kmh 29.66 in1004.4 mb 0.00 in0.0 mm 0.00 in/hr0.0 mm/hr 0.38 in9.7 mm
12:37 PM 57.2°F14.0°C 48.6°F9.2°C 73% 4.9 mph SE7.9 kmh SE 0.9 mph1.4 kmh 29.65 in1004.1 mb 0.00 in0.0 mm 0.00 in/hr0.0 mm/hr 0.38 in9.7 mm
12:42 PM 57.4°F14.1°C 48.7°F9.3°C 73% 4.0 mph WNW6.4 kmh WNW 2.9 mph4.7 kmh 29.65 in1004.1 mb 0.00 in0.0 mm 0.00 in/hr0.0 mm/hr 0.38 in9.7 mm
12:47 PM 57.6°F14.2°C 48.9°F9.4°C 73% 4.0 mph SSE6.4 kmh SSE 2.9 mph4.7 kmh 29.65 in1004.1 mb 0.00 in0.0 mm 0.00 in/hr0.0 mm/hr 0.38 in9.7 mm
12:52 PM 57.6°F14.2°C 48.6°F9.2°C 72% 4.0 mph SSE6.4 kmh SSE 0.9 mph1.4 kmh 29.65 in1004.1 mb 0.00 in0.0 mm 0.00 in/hr0.0 mm/hr 0.38 in9.7 mm
12:57 PM 57.6°F14.2°C 48.6°F9.2°C 72% 4.9 mph SE7.9 kmh SE 13.0 mph20.9 kmh 29.65 in1004.1 mb 0.00 in0.0 mm 0.00 in/hr0.0 mm/hr 0.38 in9.7 mm
01:02 PM 57.6°F14.2°C 48.6°F9.2°C 72% 4.0 mph SE6.4 kmh SE 8.9 mph14.3 kmh 29.65 in1004.1 mb 0.00 in0.0 mm 0.00 in/hr0.0 mm/hr 0.38 in9.7 mm
01:07 PM 57.6°F14.2°C 48.2°F9.0°C 71% 4.9 mph S7.9 kmh S 13.0 mph20.9 kmh 29.65 in1004.1 mb 0.00 in0.0 mm 0.00 in/hr0.0 mm/hr 0.38 in9.7 mm
01:12 PM 57.6°F14.2°C 48.2°F9.0°C 71% 6.0 mph S9.7 kmh S -- 29.65 in1004.1 mb 0.00 in0.0 mm 0.00 in/hr0.0 mm/hr 0.38 in9.7 mm
01:17 PM 57.7°F14.3°C 48.4°F9.1°C 71% 4.9 mph WSW7.9 kmh WSW 0.9 mph1.4 kmh 29.65 in1004.1 mb 0.00 in0.0 mm 0.00 in/hr0.0 mm/hr 0.38 in9.7 mm
01:22 PM 57.9°F14.4°C 48.2°F9.0°C 70% 4.0 mph SE6.4 kmh SE 2.0 mph3.2 kmh 29.66 in1004.4 mb 0.00 in0.0 mm 0.00 in/hr0.0 mm/hr 0.38 in9.7 mm
01:27 PM 58.3°F14.6°C 48.9°F9.4°C 71% 4.0 mph SE6.4 kmh SE 4.0 mph6.4 kmh 29.66 in1004.4 mb 0.00 in0.0 mm 0.00 in/hr0.0 mm/hr 0.38 in9.7 mm
01:32 PM 58.6°F14.8°C 49.3°F9.6°C 71% 2.9 mph SE4.7 kmh SE 11.0 mph17.7 kmh 29.65 in1004.1 mb 0.00 in0.0 mm 0.00 in/hr0.0 mm/hr 0.38 in9.7 mm
01:37 PM 58.6°F14.8°C 48.9°F9.4°C 70% 2.9 mph S4.7 kmh S 10.1 mph16.3 kmh 29.66 in1004.4 mb 0.00 in0.0 mm 0.00 in/hr0.0 mm/hr 0.38 in9.7 mm
01:42 PM 58.6°F14.8°C 48.6°F9.2°C 69% 4.0 mph SSE6.4 kmh SSE 4.9 mph7.9 kmh 29.66 in1004.4 mb 0.00 in0.0 mm 0.00 in/hr0.0 mm/hr 0.38 in9.7 mm
01:47 PM 58.5°F14.7°C 48.0°F8.9°C 68% 4.9 mph SSE7.9 kmh SSE 4.0 mph6.4 kmh 29.66 in1004.4 mb 0.00 in0.0 mm 0.00 in/hr0.0 mm/hr 0.38 in9.7 mm
01:52 PM 58.1°F14.5°C 48.0°F8.9°C 69% 4.9 mph SE7.9 kmh SE 6.9 mph11.1 kmh 29.66 in1004.4 mb 0.00 in0.0 mm 0.00 in/hr0.0 mm/hr 0.38 in9.7 mm
01:57 PM 57.7°F14.3°C 47.7°F8.7°C 69% 4.9 mph SE7.9 kmh SE 2.0 mph3.2 kmh 29.66 in1004.4 mb 0.00 in0.0 mm 0.00 in/hr0.0 mm/hr 0.38 in9.7 mm
02:02 PM 57.6°F14.2°C 47.5°F8.6°C 69% 4.9 mph E7.9 kmh E 0.9 mph1.4 kmh 29.66 in1004.4 mb 0.00 in0.0 mm 0.00 in/hr0.0 mm/hr 0.38 in9.7 mm
02:07 PM 57.4°F14.1°C 47.7°F8.7°C 70% 4.9 mph ESE7.9 kmh ESE 4.9 mph7.9 kmh 29.66 in1004.4 mb 0.00 in0.0 mm 0.00 in/hr0.0 mm/hr 0.38 in9.7 mm
02:12 PM 57.2°F14.0°C 46.8°F8.2°C 68% 4.9 mph ESE7.9 kmh ESE 13.0 mph20.9 kmh 29.66 in1004.4 mb 0.00 in0.0 mm 0.00 in/hr0.0 mm/hr 0.38 in9.7 mm
02:17 PM 56.8°F13.8°C 46.8°F8.2°C 69% 4.9 mph SE7.9 kmh SE -- 29.66 in1004.4 mb 0.00 in0.0 mm 0.00 in/hr0.0 mm/hr 0.38 in9.7 mm
02:22 PM 56.8°F13.8°C 46.8°F8.2°C 69% 4.0 mph SSW6.4 kmh SSW 2.0 mph3.2 kmh 29.66 in1004.4 mb 0.00 in0.0 mm 0.00 in/hr0.0 mm/hr 0.38 in9.7 mm
02:27 PM 56.8°F13.8°C 46.4°F8.0°C 68% 2.9 mph SE4.7 kmh SE 12.1 mph19.5 kmh 29.66 in1004.4 mb 0.00 in0.0 mm 0.00 in/hr0.0 mm/hr 0.38 in9.7 mm
02:32 PM 56.8°F13.8°C 45.7°F7.6°C 66% 4.0 mph SSE6.4 kmh SSE 4.0 mph6.4 kmh 29.67 in1004.7 mb 0.00 in0.0 mm 0.00 in/hr0.0 mm/hr 0.38 in9.7 mm
02:37 PM 56.7°F13.7°C 45.0°F7.2°C 65% 4.9 mph ENE7.9 kmh ENE 6.0 mph9.7 kmh 29.67 in1004.7 mb 0.00 in0.0 mm 0.00 in/hr0.0 mm/hr 0.38 in9.7 mm
02:42 PM 56.5°F13.6°C 45.3°F7.4°C 66% 4.9 mph E7.9 kmh E 4.0 mph6.4 kmh 29.67 in1004.7 mb 0.00 in0.0 mm 0.00 in/hr0.0 mm/hr 0.38 in9.7 mm
02:47 PM 56.1°F13.4°C 45.3°F7.4°C 67% 4.9 mph SE7.9 kmh SE 2.9 mph4.7 kmh 29.68 in1005.1 mb 0.00 in0.0 mm 0.00 in/hr0.0 mm/hr 0.38 in9.7 mm
02:52 PM 55.9°F13.3°C 44.8°F7.1°C 66% 6.0 mph ESE9.7 kmh ESE 2.0 mph3.2 kmh 29.68 in1005.1 mb 0.00 in0.0 mm 0.00 in/hr0.0 mm/hr 0.38 in9.7 mm
02:57 PM 55.9°F13.3°C 45.5°F7.5°C 68% 4.9 mph SE7.9 kmh SE 4.9 mph7.9 kmh 29.68 in1005.1 mb 0.00 in0.0 mm 0.00 in/hr0.0 mm/hr 0.38 in9.7 mm
03:02 PM 55.9°F13.3°C 45.9°F7.7°C 69% 4.9 mph S7.9 kmh S 6.0 mph9.7 kmh 29.68 in1005.1 mb 0.00 in0.0 mm 0.00 in/hr0.0 mm/hr 0.38 in9.7 mm
03:07 PM 55.9°F13.3°C 45.9°F7.7°C 69% 4.9 mph SSE7.9 kmh SSE 12.1 mph19.5 kmh 29.69 in1005.4 mb 0.00 in0.0 mm 0.00 in/hr0.0 mm/hr 0.38 in9.7 mm
03:12 PM 55.9°F13.3°C 45.9°F7.7°C 69% 4.9 mph ESE7.9 kmh ESE 0.9 mph1.4 kmh 29.69 in1005.4 mb 0.00 in0.0 mm 0.00 in/hr0.0 mm/hr 0.38 in9.7 mm
03:17 PM 56.1°F13.4°C 46.4°F8.0°C 70% 4.0 mph SE6.4 kmh SE 0.9 mph1.4 kmh 29.69 in1005.4 mb 0.00 in0.0 mm 0.00 in/hr0.0 mm/hr 0.38 in9.7 mm
03:22 PM 56.1°F13.4°C 46.0°F7.8°C 69% 2.0 mph SE3.2 kmh SE 4.9 mph7.9 kmh 29.69 in1005.4 mb 0.00 in0.0 mm 0.00 in/hr0.0 mm/hr 0.38 in9.7 mm
03:27 PM 55.9°F13.3°C 45.9°F7.7°C 69% 2.0 mph WSW3.2 kmh WSW 2.0 mph3.2 kmh 29.69 in1005.4 mb 0.00 in0.0 mm 0.00 in/hr0.0 mm/hr 0.38 in9.7 mm
03:32 PM 55.8°F13.2°C 45.7°F7.6°C 69% 2.0 mph ESE3.2 kmh ESE 0.9 mph1.4 kmh 29.70 in1005.8 mb 0.00 in0.0 mm 0.00 in/hr0.0 mm/hr 0.38 in9.7 mm
03:37 PM 55.8°F13.2°C 45.7°F7.6°C 69% 2.9 mph SE4.7 kmh SE 2.0 mph3.2 kmh 29.70 in1005.8 mb 0.00 in0.0 mm 0.00 in/hr0.0 mm/hr 0.38 in9.7 mm
03:42 PM 55.6°F13.1°C 45.5°F7.5°C 69% 4.0 mph SE6.4 kmh SE 2.9 mph4.7 kmh 29.70 in1005.8 mb 0.00 in0.0 mm 0.00 in/hr0.0 mm/hr 0.38 in9.7 mm
03:47 PM 55.2°F12.9°C 45.7°F7.6°C 70% 4.0 mph S6.4 kmh S 4.0 mph6.4 kmh 29.70 in1005.8 mb 0.00 in0.0 mm 0.00 in/hr0.0 mm/hr 0.38 in9.7 mm
03:52 PM 55.0°F12.8°C 46.2°F7.9°C 72% 2.9 mph SSE4.7 kmh SSE 0.9 mph1.4 kmh 29.70 in1005.8 mb 0.00 in0.0 mm 0.00 in/hr0.0 mm/hr 0.38 in9.7 mm
03:57 PM 54.7°F12.6°C 45.9°F7.7°C 72% 2.0 mph WSW3.2 kmh WSW 2.9 mph4.7 kmh 29.71 in1006.1 mb 0.00 in0.0 mm 0.00 in/hr0.0 mm/hr 0.38 in9.7 mm
04:02 PM 54.3°F12.4°C 45.9°F7.7°C 73% 2.0 mph SW3.2 kmh SW 2.9 mph4.7 kmh 29.71 in1006.1 mb 0.00 in0.0 mm 0.00 in/hr0.0 mm/hr 0.38 in9.7 mm
04:07 PM 53.6°F12.0°C 45.5°F7.5°C 74% 4.9 mph NW7.9 kmh NW 6.9 mph11.1 kmh 29.71 in1006.1 mb 0.00 in0.0 mm 0.00 in/hr0.0 mm/hr 0.38 in9.7 mm
04:12 PM 51.6°F10.9°C 45.3°F7.4°C 79% 8.9 mph W14.3 kmh W 8.9 mph14.3 kmh 29.71 in1006.1 mb 0.00 in0.0 mm 0.00 in/hr0.0 mm/hr 0.38 in9.7 mm
04:17 PM 50.5°F10.3°C 45.5°F7.5°C 83% 10.1 mph WNW16.3 kmh WNW 6.0 mph9.7 kmh 29.71 in1006.1 mb 0.00 in0.0 mm 0.00 in/hr0.0 mm/hr 0.38 in9.7 mm
04:22 PM 50.2°F10.1°C 45.5°F7.5°C 84% 8.9 mph W14.3 kmh W 8.1 mph13.0 kmh 29.71 in1006.1 mb 0.00 in0.0 mm 0.00 in/hr0.0 mm/hr 0.38 in9.7 mm
04:27 PM 50.4°F10.2°C 46.0°F7.8°C 85% 8.1 mph WNW13.0 kmh WNW 10.1 mph16.3 kmh 29.72 in1006.4 mb 0.00 in0.0 mm 0.00 in/hr0.0 mm/hr 0.38 in9.7 mm
04:32 PM 50.4°F10.2°C 46.6°F8.1°C 87% 6.0 mph WNW9.7 kmh WNW 6.0 mph9.7 kmh 29.72 in1006.4 mb 0.00 in0.0 mm 0.00 in/hr0.0 mm/hr 0.38 in9.7 mm
04:37 PM 50.2°F10.1°C 46.4°F8.0°C 87% 4.9 mph WSW7.9 kmh WSW 4.0 mph6.4 kmh 29.72 in1006.4 mb 0.00 in0.0 mm 0.00 in/hr0.0 mm/hr 0.39 in9.9 mm
04:42 PM 50.0°F10.0°C 46.6°F8.1°C 88% 2.9 mph NNW4.7 kmh NNW 0.9 mph1.4 kmh 29.72 in1006.4 mb 0.00 in0.0 mm 0.00 in/hr0.0 mm/hr 0.39 in9.9 mm
04:47 PM 50.0°F10.0°C 46.9°F8.3°C 89% 0.9 mph W1.4 kmh W -- 29.73 in1006.8 mb 0.04 in1.0 mm 0.48 in/hr12.2 mm/hr 0.39 in9.9 mm
04:52 PM 50.0°F10.0°C 46.9°F8.3°C 89% 0.9 mph WNW1.4 kmh WNW -- 29.73 in1006.8 mb 0.04 in1.0 mm 0.00 in/hr0.0 mm/hr 0.40 in10.2 mm
04:57 PM 50.2°F10.1°C 47.3°F8.5°C 90% Calm Calm -- 29.72 in1006.4 mb 0.04 in1.0 mm 0.00 in/hr0.0 mm/hr 0.40 in10.2 mm